sensor_id;sensor_type;location;lat;lon;timestamp;P1;durP1;ratioP1;P2;durP2;ratioP2
44578;SDS011;37422;51.402;0.016;2022-12-26T00:00:15;24.25;;;3.78;;
44578;SDS011;37422;51.402;0.016;2022-12-26T00:02:56;20.48;;;3.85;;
44578;SDS011;37422;51.402;0.016;2022-12-26T00:05:51;15.13;;;2.85;;
44578;SDS011;37422;51.402;0.016;2022-12-26T00:08:42;16.10;;;2.97;;
44578;SDS011;37422;51.402;0.016;2022-12-26T00:11:18;12.48;;;2.42;;
44578;SDS011;37422;51.402;0.016;2022-12-26T00:14:00;24.63;;;5.53;;
44578;SDS011;37422;51.402;0.016;2022-12-26T00:16:43;22.23;;;3.42;;
44578;SDS011;37422;51.402;0.016;2022-12-26T00:19:34;19.67;;;4.88;;
44578;SDS011;37422;51.402;0.016;2022-12-26T00:22:29;16.02;;;3.03;;
44578;SDS011;37422;51.402;0.016;2022-12-26T00:25:05;24.10;;;3.65;;
44578;SDS011;37422;51.402;0.016;2022-12-26T00:27:36;26.00;;;3.28;;
44578;SDS011;37422;51.402;0.016;2022-12-26T00:30:32;18.83;;;3.00;;
44578;SDS011;37422;51.402;0.016;2022-12-26T00:33:07;13.52;;;2.83;;
44578;SDS011;37422;51.402;0.016;2022-12-26T00:35:41;24.20;;;3.17;;
44578;SDS011;37422;51.402;0.016;2022-12-26T00:38:17;16.05;;;3.83;;
44578;SDS011;37422;51.402;0.016;2022-12-26T00:44:23;28.65;;;4.85;;
44578;SDS011;37422;51.402;0.016;2022-12-26T00:47:14;19.27;;;3.30;;
44578;SDS011;37422;51.402;0.016;2022-12-26T00:49:56;17.15;;;3.55;;
44578;SDS011;37422;51.402;0.016;2022-12-26T00:55:40;14.55;;;3.95;;
44578;SDS011;37422;51.402;0.016;2022-12-26T00:58:19;9.23;;;2.83;;
44578;SDS011;37422;51.402;0.016;2022-12-26T01:00:48;24.38;;;3.38;;
44578;SDS011;37422;51.402;0.016;2022-12-26T01:03:20;21.60;;;2.80;;
44578;SDS011;37422;51.402;0.016;2022-12-26T01:06:17;20.80;;;3.55;;
44578;SDS011;37422;51.402;0.016;2022-12-26T01:09:19;15.00;;;2.15;;
44578;SDS011;37422;51.402;0.016;2022-12-26T01:11:50;11.90;;;2.00;;
44578;SDS011;37422;51.402;0.016;2022-12-26T01:15:13;16.50;;;2.72;;
44578;SDS011;37422;51.402;0.016;2022-12-26T01:17:49;17.25;;;3.97;;
44578;SDS011;37422;51.402;0.016;2022-12-26T01:20:22;13.27;;;2.80;;
44578;SDS011;37422;51.402;0.016;2022-12-26T01:23:29;24.55;;;3.05;;
44578;SDS011;37422;51.402;0.016;2022-12-26T01:26:11;27.02;;;3.47;;
44578;SDS011;37422;51.402;0.016;2022-12-26T01:28:56;21.73;;;3.60;;
44578;SDS011;37422;51.402;0.016;2022-12-26T01:31:46;19.85;;;4.15;;
44578;SDS011;37422;51.402;0.016;2022-12-26T01:34:46;18.35;;;3.15;;
44578;SDS011;37422;51.402;0.016;2022-12-26T01:41:39;16.65;;;4.15;;
44578;SDS011;37422;51.402;0.016;2022-12-26T01:45:03;23.17;;;4.72;;
44578;SDS011;37422;51.402;0.016;2022-12-26T01:48:50;14.27;;;2.33;;
44578;SDS011;37422;51.402;0.016;2022-12-26T01:51:55;17.85;;;3.30;;
44578;SDS011;37422;51.402;0.016;2022-12-26T01:54:32;19.90;;;4.65;;
44578;SDS011;37422;51.402;0.016;2022-12-26T01:57:10;14.80;;;2.65;;
44578;SDS011;37422;51.402;0.016;2022-12-26T01:59:45;16.50;;;3.80;;
44578;SDS011;37422;51.402;0.016;2022-12-26T02:02:43;13.00;;;2.10;;
44578;SDS011;37422;51.402;0.016;2022-12-26T02:05:46;13.70;;;2.35;;
44578;SDS011;37422;51.402;0.016;2022-12-26T02:08:28;19.98;;;3.70;;
44578;SDS011;37422;51.402;0.016;2022-12-26T02:13:51;18.33;;;3.13;;
44578;SDS011;37422;51.402;0.016;2022-12-26T02:16:26;16.30;;;3.17;;
44578;SDS011;37422;51.402;0.016;2022-12-26T02:19:08;16.20;;;2.42;;
44578;SDS011;37422;51.402;0.016;2022-12-26T02:38:28;16.80;;;2.72;;
44578;SDS011;37422;51.402;0.016;2022-12-26T02:57:20;18.70;;;3.15;;
44578;SDS011;37422;51.402;0.016;2022-12-26T03:00:35;16.50;;;2.72;;
44578;SDS011;37422;51.402;0.016;2022-12-26T03:03:49;22.20;;;4.30;;
44578;SDS011;37422;51.402;0.016;2022-12-26T03:06:56;17.42;;;3.08;;
44578;SDS011;37422;51.402;0.016;2022-12-26T03:09:53;22.85;;;3.80;;
44578;SDS011;37422;51.402;0.016;2022-12-26T03:13:04;27.20;;;5.75;;
44578;SDS011;37422;51.402;0.016;2022-12-26T03:15:58;20.00;;;3.45;;
44578;SDS011;37422;51.402;0.016;2022-12-26T03:19:03;21.88;;;3.10;;
44578;SDS011;37422;51.402;0.016;2022-12-26T03:22:02;19.90;;;4.60;;
44578;SDS011;37422;51.402;0.016;2022-12-26T03:25:19;18.50;;;2.22;;
44578;SDS011;37422;51.402;0.016;2022-12-26T03:28:26;15.43;;;2.75;;
44578;SDS011;37422;51.402;0.016;2022-12-26T03:31:07;20.08;;;3.65;;
44578;SDS011;37422;51.402;0.016;2022-12-26T03:33:40;10.98;;;2.38;;
44578;SDS011;37422;51.402;0.016;2022-12-26T03:43:26;12.20;;;2.67;;
44578;SDS011;37422;51.402;0.016;2022-12-26T03:50:29;11.88;;;1.90;;
44578;SDS011;37422;51.402;0.016;2022-12-26T03:57:24;7.20;;;2.10;;
44578;SDS011;37422;51.402;0.016;2022-12-26T04:01:15;14.45;;;4.13;;
44578;SDS011;37422;51.402;0.016;2022-12-26T04:04:32;10.70;;;1.75;;
44578;SDS011;37422;51.402;0.016;2022-12-26T04:08:08;8.93;;;2.55;;
44578;SDS011;37422;51.402;0.016;2022-12-26T04:11:18;13.10;;;2.20;;
44578;SDS011;37422;51.402;0.016;2022-12-26T04:14:36;6.95;;;2.35;;
44578;SDS011;37422;51.402;0.016;2022-12-26T04:17:50;11.45;;;1.70;;
44578;SDS011;37422;51.402;0.016;2022-12-26T04:20:51;13.73;;;2.42;;
44578;SDS011;37422;51.402;0.016;2022-12-26T04:23:56;10.55;;;1.77;;
44578;SDS011;37422;51.402;0.016;2022-12-26T04:27:05;9.70;;;3.38;;
44578;SDS011;37422;51.402;0.016;2022-12-26T04:29:58;7.43;;;1.30;;
44578;SDS011;37422;51.402;0.016;2022-12-26T04:32:53;9.88;;;1.42;;
44578;SDS011;37422;51.402;0.016;2022-12-26T04:38:42;2.80;;;0.80;;
44578;SDS011;37422;51.402;0.016;2022-12-26T04:41:49;5.05;;;1.30;;
44578;SDS011;37422;51.402;0.016;2022-12-26T04:44:39;6.30;;;1.42;;
44578;SDS011;37422;51.402;0.016;2022-12-26T04:47:08;6.07;;;1.25;;
44578;SDS011;37422;51.402;0.016;2022-12-26T04:49:40;9.10;;;1.50;;
44578;SDS011;37422;51.402;0.016;2022-12-26T04:52:30;3.08;;;1.25;;
44578;SDS011;37422;51.402;0.016;2022-12-26T04:55:30;2.50;;;1.35;;
44578;SDS011;37422;51.402;0.016;2022-12-26T04:57:59;10.57;;;1.73;;
44578;SDS011;37422;51.402;0.016;2022-12-26T05:00:27;4.00;;;1.20;;
44578;SDS011;37422;51.402;0.016;2022-12-26T05:02:57;8.63;;;1.60;;
44578;SDS011;37422;51.402;0.016;2022-12-26T05:05:47;7.45;;;1.00;;
44578;SDS011;37422;51.402;0.016;2022-12-26T05:08:37;8.63;;;1.73;;
44578;SDS011;37422;51.402;0.016;2022-12-26T05:11:34;6.25;;;1.40;;
44578;SDS011;37422;51.402;0.016;2022-12-26T05:14:01;8.38;;;3.22;;
44578;SDS011;37422;51.402;0.016;2022-12-26T05:16:29;8.38;;;1.50;;
44578;SDS011;37422;51.402;0.016;2022-12-26T05:19:16;3.45;;;1.10;;
44578;SDS011;37422;51.402;0.016;2022-12-26T05:22:03;4.28;;;1.33;;
44578;SDS011;37422;51.402;0.016;2022-12-26T05:24:52;4.05;;;1.45;;
44578;SDS011;37422;51.402;0.016;2022-12-26T05:27:39;7.65;;;1.30;;
44578;SDS011;37422;51.402;0.016;2022-12-26T05:30:29;6.97;;;1.80;;
44578;SDS011;37422;51.402;0.016;2022-12-26T05:33:02;11.50;;;1.58;;
44578;SDS011;37422;51.402;0.016;2022-12-26T05:35:51;4.40;;;1.60;;
44578;SDS011;37422;51.402;0.016;2022-12-26T05:38:19;7.30;;;1.45;;
44578;SDS011;37422;51.402;0.016;2022-12-26T05:40:47;8.07;;;2.03;;
44578;SDS011;37422;51.402;0.016;2022-12-26T05:43:14;3.17;;;0.98;;
44578;SDS011;37422;51.402;0.016;2022-12-26T05:45:42;2.75;;;0.80;;
44578;SDS011;37422;51.402;0.016;2022-12-26T05:48:10;1.70;;;1.27;;
44578;SDS011;37422;51.402;0.016;2022-12-26T05:50:43;2.95;;;0.82;;
44578;SDS011;37422;51.402;0.016;2022-12-26T05:53:11;0.70;;;0.60;;
44578;SDS011;37422;51.402;0.016;2022-12-26T05:55:39;0.75;;;0.50;;
44578;SDS011;37422;51.402;0.016;2022-12-26T05:58:12;2.58;;;0.63;;
44578;SDS011;37422;51.402;0.016;2022-12-26T06:00:43;1.75;;;0.60;;
44578;SDS011;37422;51.402;0.016;2022-12-26T06:03:16;3.28;;;0.85;;
44578;SDS011;37422;51.402;0.016;2022-12-26T06:05:55;1.08;;;0.60;;
44578;SDS011;37422;51.402;0.016;2022-12-26T06:08:56;1.33;;;0.90;;
44578;SDS011;37422;51.402;0.016;2022-12-26T06:11:52;3.45;;;0.90;;
44578;SDS011;37422;51.402;0.016;2022-12-26T06:15:01;1.65;;;1.35;;
44578;SDS011;37422;51.402;0.016;2022-12-26T06:17:48;6.88;;;1.38;;
44578;SDS011;37422;51.402;0.016;2022-12-26T06:20:28;1.75;;;0.52;;
44578;SDS011;37422;51.402;0.016;2022-12-26T06:23:15;5.93;;;1.15;;
44578;SDS011;37422;51.402;0.016;2022-12-26T06:26:11;3.33;;;1.20;;
44578;SDS011;37422;51.402;0.016;2022-12-26T06:28:55;5.45;;;1.02;;
44578;SDS011;37422;51.402;0.016;2022-12-26T06:31:33;3.70;;;0.85;;
44578;SDS011;37422;51.402;0.016;2022-12-26T06:34:17;3.25;;;0.73;;
44578;SDS011;37422;51.402;0.016;2022-12-26T06:36:54;5.57;;;1.02;;
44578;SDS011;37422;51.402;0.016;2022-12-26T06:39:54;8.75;;;1.40;;
44578;SDS011;37422;51.402;0.016;2022-12-26T06:42:41;8.90;;;1.33;;
44578;SDS011;37422;51.402;0.016;2022-12-26T06:45:56;2.05;;;0.80;;
44578;SDS011;37422;51.402;0.016;2022-12-26T06:48:36;6.03;;;1.20;;
44578;SDS011;37422;51.402;0.016;2022-12-26T06:51:21;2.80;;;0.88;;
44578;SDS011;37422;51.402;0.016;2022-12-26T06:55:04;3.08;;;1.00;;
44578;SDS011;37422;51.402;0.016;2022-12-26T06:58:03;7.03;;;1.30;;
44578;SDS011;37422;51.402;0.016;2022-12-26T07:03:55;5.10;;;1.02;;
44578;SDS011;37422;51.402;0.016;2022-12-26T07:06:50;5.15;;;1.65;;
44578;SDS011;37422;51.402;0.016;2022-12-26T07:09:32;7.47;;;1.38;;
44578;SDS011;37422;51.402;0.016;2022-12-26T07:12:34;3.63;;;1.35;;
44578;SDS011;37422;51.402;0.016;2022-12-26T07:15:05;8.80;;;1.10;;
44578;SDS011;37422;51.402;0.016;2022-12-26T07:17:44;5.63;;;1.15;;
44578;SDS011;37422;51.402;0.016;2022-12-26T07:20:18;3.60;;;1.15;;
44578;SDS011;37422;51.402;0.016;2022-12-26T07:23:03;4.65;;;0.90;;
44578;SDS011;37422;51.402;0.016;2022-12-26T07:25:49;4.63;;;1.35;;
44578;SDS011;37422;51.402;0.016;2022-12-26T07:31:49;5.67;;;1.40;;
44578;SDS011;37422;51.402;0.016;2022-12-26T07:34:24;3.45;;;1.00;;
44578;SDS011;37422;51.402;0.016;2022-12-26T07:38:06;5.97;;;2.38;;
44578;SDS011;37422;51.402;0.016;2022-12-26T07:40:43;8.32;;;2.13;;
44578;SDS011;37422;51.402;0.016;2022-12-26T07:43:19;7.80;;;1.40;;
44578;SDS011;37422;51.402;0.016;2022-12-26T07:45:56;7.35;;;1.80;;
44578;SDS011;37422;51.402;0.016;2022-12-26T07:48:34;6.32;;;2.17;;
44578;SDS011;37422;51.402;0.016;2022-12-26T07:51:06;5.20;;;1.60;;
44578;SDS011;37422;51.402;0.016;2022-12-26T07:54:06;4.15;;;1.30;;
44578;SDS011;37422;51.402;0.016;2022-12-26T07:56:55;8.35;;;1.98;;
44578;SDS011;37422;51.402;0.016;2022-12-26T08:00:17;4.70;;;1.40;;
44578;SDS011;37422;51.402;0.016;2022-12-26T08:02:48;8.75;;;1.65;;
44578;SDS011;37422;51.402;0.016;2022-12-26T08:05:47;6.18;;;1.42;;
44578;SDS011;37422;51.402;0.016;2022-12-26T08:08:23;12.80;;;1.53;;
44578;SDS011;37422;51.402;0.016;2022-12-26T08:11:01;7.30;;;1.63;;
44578;SDS011;37422;51.402;0.016;2022-12-26T08:13:45;7.55;;;1.80;;
44578;SDS011;37422;51.402;0.016;2022-12-26T08:16:33;7.55;;;1.65;;
44578;SDS011;37422;51.402;0.016;2022-12-26T08:19:33;7.32;;;2.25;;
44578;SDS011;37422;51.402;0.016;2022-12-26T08:22:05;10.32;;;1.63;;
44578;SDS011;37422;51.402;0.016;2022-12-26T08:24:39;6.57;;;1.60;;
44578;SDS011;37422;51.402;0.016;2022-12-26T08:27:22;9.82;;;2.13;;
44578;SDS011;37422;51.402;0.016;2022-12-26T08:29:53;8.05;;;2.08;;
44578;SDS011;37422;51.402;0.016;2022-12-26T08:32:22;10.38;;;2.40;;
44578;SDS011;37422;51.402;0.016;2022-12-26T08:35:07;9.65;;;1.58;;
44578;SDS011;37422;51.402;0.016;2022-12-26T08:37:52;7.75;;;1.33;;
44578;SDS011;37422;51.402;0.016;2022-12-26T08:40:35;9.93;;;1.80;;
44578;SDS011;37422;51.402;0.016;2022-12-26T08:43:11;10.70;;;1.85;;
44578;SDS011;37422;51.402;0.016;2022-12-26T08:46:11;6.05;;;1.55;;
44578;SDS011;37422;51.402;0.016;2022-12-26T08:48:45;9.80;;;1.85;;
44578;SDS011;37422;51.402;0.016;2022-12-26T08:51:20;8.75;;;2.05;;
44578;SDS011;37422;51.402;0.016;2022-12-26T08:54:00;5.93;;;1.45;;
44578;SDS011;37422;51.402;0.016;2022-12-26T08:57:17;12.68;;;2.20;;
44578;SDS011;37422;51.402;0.016;2022-12-26T08:59:53;7.30;;;1.38;;
44578;SDS011;37422;51.402;0.016;2022-12-26T09:02:24;5.63;;;1.52;;
44578;SDS011;37422;51.402;0.016;2022-12-26T09:05:01;11.38;;;1.75;;
44578;SDS011;37422;51.402;0.016;2022-12-26T09:07:36;4.47;;;1.63;;
44578;SDS011;37422;51.402;0.016;2022-12-26T09:10:10;7.25;;;2.40;;
44578;SDS011;37422;51.402;0.016;2022-12-26T09:12:49;7.80;;;1.47;;
44578;SDS011;37422;51.402;0.016;2022-12-26T09:15:19;6.38;;;2.33;;
44578;SDS011;37422;51.402;0.016;2022-12-26T09:18:05;5.05;;;1.40;;
44578;SDS011;37422;51.402;0.016;2022-12-26T09:21:10;10.77;;;2.42;;
44578;SDS011;37422;51.402;0.016;2022-12-26T09:27:33;3.65;;;1.75;;
44578;SDS011;37422;51.402;0.016;2022-12-26T09:31:19;7.05;;;2.08;;
44578;SDS011;37422;51.402;0.016;2022-12-26T09:33:50;3.85;;;1.48;;
44578;SDS011;37422;51.402;0.016;2022-12-26T09:37:33;6.25;;;1.35;;
44578;SDS011;37422;51.402;0.016;2022-12-26T09:44:16;4.90;;;1.58;;
44578;SDS011;37422;51.402;0.016;2022-12-26T09:51:32;9.93;;;1.77;;
44578;SDS011;37422;51.402;0.016;2022-12-26T09:58:53;4.30;;;1.30;;
44578;SDS011;37422;51.402;0.016;2022-12-26T10:02:00;5.53;;;1.30;;
44578;SDS011;37422;51.402;0.016;2022-12-26T10:04:42;2.67;;;1.00;;
44578;SDS011;37422;51.402;0.016;2022-12-26T10:07:37;6.38;;;2.10;;
44578;SDS011;37422;51.402;0.016;2022-12-26T10:21:37;3.25;;;1.40;;
44578;SDS011;37422;51.402;0.016;2022-12-26T10:25:13;3.58;;;1.20;;
44578;SDS011;37422;51.402;0.016;2022-12-26T10:29:14;3.85;;;0.90;;
44578;SDS011;37422;51.402;0.016;2022-12-26T10:32:20;6.43;;;1.58;;
44578;SDS011;37422;51.402;0.016;2022-12-26T10:38:27;1.23;;;0.80;;
44578;SDS011;37422;51.402;0.016;2022-12-26T10:41:04;2.75;;;1.20;;
44578;SDS011;37422;51.402;0.016;2022-12-26T10:44:03;4.20;;;0.93;;
44578;SDS011;37422;51.402;0.016;2022-12-26T10:50:23;7.32;;;1.42;;
44578;SDS011;37422;51.402;0.016;2022-12-26T10:53:03;7.70;;;1.92;;
44578;SDS011;37422;51.402;0.016;2022-12-26T10:55:34;8.52;;;2.00;;
44578;SDS011;37422;51.402;0.016;2022-12-26T10:58:14;8.43;;;1.75;;
44578;SDS011;37422;51.402;0.016;2022-12-26T11:00:43;7.43;;;1.20;;
44578;SDS011;37422;51.402;0.016;2022-12-26T11:03:12;5.55;;;1.80;;
44578;SDS011;37422;51.402;0.016;2022-12-26T11:05:46;6.20;;;1.35;;
44578;SDS011;37422;51.402;0.016;2022-12-26T11:08:37;4.70;;;1.30;;
44578;SDS011;37422;51.402;0.016;2022-12-26T11:11:12;5.53;;;2.95;;
44578;SDS011;37422;51.402;0.016;2022-12-26T11:14:29;6.53;;;2.00;;
44578;SDS011;37422;51.402;0.016;2022-12-26T11:20:21;7.07;;;1.45;;
44578;SDS011;37422;51.402;0.016;2022-12-26T11:26:08;5.75;;;1.60;;
44578;SDS011;37422;51.402;0.016;2022-12-26T11:29:04;8.00;;;1.52;;
44578;SDS011;37422;51.402;0.016;2022-12-26T11:32:29;6.28;;;1.83;;
44578;SDS011;37422;51.402;0.016;2022-12-26T11:35:02;7.43;;;1.90;;
44578;SDS011;37422;51.402;0.016;2022-12-26T11:37:40;7.45;;;1.58;;
44578;SDS011;37422;51.402;0.016;2022-12-26T11:40:17;9.45;;;1.65;;
44578;SDS011;37422;51.402;0.016;2022-12-26T11:42:59;7.25;;;1.98;;
44578;SDS011;37422;51.402;0.016;2022-12-26T11:45:39;6.50;;;1.88;;
44578;SDS011;37422;51.402;0.016;2022-12-26T11:48:22;7.13;;;1.55;;
44578;SDS011;37422;51.402;0.016;2022-12-26T11:51:22;10.65;;;2.65;;
44578;SDS011;37422;51.402;0.016;2022-12-26T11:54:17;7.95;;;1.60;;
44578;SDS011;37422;51.402;0.016;2022-12-26T11:57:04;8.68;;;1.98;;
44578;SDS011;37422;51.402;0.016;2022-12-26T11:59:50;7.55;;;1.70;;
44578;SDS011;37422;51.402;0.016;2022-12-26T12:02:55;10.20;;;1.73;;
44578;SDS011;37422;51.402;0.016;2022-12-26T12:09:24;7.43;;;1.88;;
44578;SDS011;37422;51.402;0.016;2022-12-26T12:12:02;10.32;;;2.13;;
44578;SDS011;37422;51.402;0.016;2022-12-26T12:15:21;9.18;;;1.92;;
44578;SDS011;37422;51.402;0.016;2022-12-26T12:36:10;5.05;;;1.80;;
44578;SDS011;37422;51.402;0.016;2022-12-26T12:43:17;8.70;;;1.65;;
44578;SDS011;37422;51.402;0.016;2022-12-26T12:46:21;8.45;;;2.17;;
44578;SDS011;37422;51.402;0.016;2022-12-26T12:56:43;8.05;;;1.70;;
44578;SDS011;37422;51.402;0.016;2022-12-26T13:00:11;11.60;;;1.80;;
44578;SDS011;37422;51.402;0.016;2022-12-26T13:03:48;8.20;;;2.17;;
44578;SDS011;37422;51.402;0.016;2022-12-26T13:06:37;7.28;;;2.00;;
44578;SDS011;37422;51.402;0.016;2022-12-26T13:09:33;8.38;;;1.75;;
44578;SDS011;37422;51.402;0.016;2022-12-26T13:12:34;8.00;;;2.13;;
44578;SDS011;37422;51.402;0.016;2022-12-26T13:18:16;10.45;;;1.95;;
44578;SDS011;37422;51.402;0.016;2022-12-26T13:20:59;9.50;;;3.45;;
44578;SDS011;37422;51.402;0.016;2022-12-26T13:26:40;5.32;;;1.88;;
44578;SDS011;37422;51.402;0.016;2022-12-26T13:32:00;10.98;;;2.65;;
44578;SDS011;37422;51.402;0.016;2022-12-26T13:34:37;9.30;;;2.25;;
44578;SDS011;37422;51.402;0.016;2022-12-26T13:37:05;10.70;;;2.08;;
44578;SDS011;37422;51.402;0.016;2022-12-26T13:49:44;6.25;;;2.03;;
44578;SDS011;37422;51.402;0.016;2022-12-26T13:57:20;9.90;;;2.78;;
44578;SDS011;37422;51.402;0.016;2022-12-26T14:10:57;9.18;;;1.73;;
44578;SDS011;37422;51.402;0.016;2022-12-26T14:28:11;6.78;;;2.00;;
44578;SDS011;37422;51.402;0.016;2022-12-26T14:31:45;8.25;;;2.30;;
44578;SDS011;37422;51.402;0.016;2022-12-26T14:34:56;4.67;;;1.63;;
44578;SDS011;37422;51.402;0.016;2022-12-26T14:40:33;9.52;;;2.38;;
44578;SDS011;37422;51.402;0.016;2022-12-26T14:46:04;10.45;;;2.08;;
44578;SDS011;37422;51.402;0.016;2022-12-26T14:48:58;11.07;;;1.98;;
44578;SDS011;37422;51.402;0.016;2022-12-26T14:51:46;7.18;;;2.17;;
44578;SDS011;37422;51.402;0.016;2022-12-26T15:05:42;9.75;;;3.08;;
44578;SDS011;37422;51.402;0.016;2022-12-26T15:20:26;11.52;;;3.33;;
44578;SDS011;37422;51.402;0.016;2022-12-26T15:29:19;6.78;;;1.85;;
44578;SDS011;37422;51.402;0.016;2022-12-26T15:40:18;6.50;;;2.50;;
44578;SDS011;37422;51.402;0.016;2022-12-26T15:45:50;5.47;;;1.98;;
44578;SDS011;37422;51.402;0.016;2022-12-26T15:52:09;7.97;;;2.83;;
44578;SDS011;37422;51.402;0.016;2022-12-26T16:00:50;6.78;;;1.92;;
44578;SDS011;37422;51.402;0.016;2022-12-26T16:06:23;10.43;;;2.05;;
44578;SDS011;37422;51.402;0.016;2022-12-26T16:09:03;4.28;;;1.73;;
44578;SDS011;37422;51.402;0.016;2022-12-26T16:12:01;9.05;;;2.10;;
44578;SDS011;37422;51.402;0.016;2022-12-26T16:14:43;7.35;;;2.70;;
44578;SDS011;37422;51.402;0.016;2022-12-26T16:19:42;8.05;;;2.17;;
44578;SDS011;37422;51.402;0.016;2022-12-26T16:22:57;10.57;;;2.67;;
44578;SDS011;37422;51.402;0.016;2022-12-26T16:25:19;10.20;;;2.47;;
44578;SDS011;37422;51.402;0.016;2022-12-26T16:27:52;7.80;;;2.42;;
44578;SDS011;37422;51.402;0.016;2022-12-26T16:30:24;10.55;;;2.65;;
44578;SDS011;37422;51.402;0.016;2022-12-26T16:32:58;9.00;;;3.17;;
44578;SDS011;37422;51.402;0.016;2022-12-26T16:35:30;14.55;;;3.20;;
44578;SDS011;37422;51.402;0.016;2022-12-26T16:38:00;7.93;;;2.33;;
44578;SDS011;37422;51.402;0.016;2022-12-26T16:40:45;10.32;;;2.25;;
44578;SDS011;37422;51.402;0.016;2022-12-26T16:45:45;8.80;;;2.63;;
44578;SDS011;37422;51.402;0.016;2022-12-26T16:48:21;11.73;;;2.13;;
44578;SDS011;37422;51.402;0.016;2022-12-26T16:50:58;7.88;;;2.15;;
44578;SDS011;37422;51.402;0.016;2022-12-26T16:59:03;6.82;;;2.40;;
44578;SDS011;37422;51.402;0.016;2022-12-26T17:01:56;8.60;;;1.95;;
44578;SDS011;37422;51.402;0.016;2022-12-26T17:04:27;10.18;;;2.30;;
44578;SDS011;37422;51.402;0.016;2022-12-26T17:07:05;7.97;;;2.22;;
44578;SDS011;37422;51.402;0.016;2022-12-26T17:09:42;8.77;;;2.47;;
44578;SDS011;37422;51.402;0.016;2022-12-26T17:12:18;4.53;;;2.00;;
44578;SDS011;37422;51.402;0.016;2022-12-26T17:15:20;9.40;;;2.53;;
44578;SDS011;37422;51.402;0.016;2022-12-26T17:17:51;13.10;;;3.22;;
44578;SDS011;37422;51.402;0.016;2022-12-26T17:30:44;7.55;;;2.90;;
44578;SDS011;37422;51.402;0.016;2022-12-26T17:33:27;4.78;;;2.42;;
44578;SDS011;37422;51.402;0.016;2022-12-26T17:36:04;8.77;;;2.50;;
44578;SDS011;37422;51.402;0.016;2022-12-26T17:39:10;6.97;;;2.45;;
44578;SDS011;37422;51.402;0.016;2022-12-26T17:42:10;9.57;;;3.22;;
44578;SDS011;37422;51.402;0.016;2022-12-26T17:44:42;9.55;;;3.67;;
44578;SDS011;37422;51.402;0.016;2022-12-26T17:47:22;10.52;;;4.22;;
44578;SDS011;37422;51.402;0.016;2022-12-26T17:49:59;11.40;;;3.25;;
44578;SDS011;37422;51.402;0.016;2022-12-26T17:52:27;8.63;;;2.90;;
44578;SDS011;37422;51.402;0.016;2022-12-26T17:55:22;12.30;;;2.75;;
44578;SDS011;37422;51.402;0.016;2022-12-26T18:00:40;9.18;;;2.65;;
44578;SDS011;37422;51.402;0.016;2022-12-26T18:03:19;8.77;;;2.33;;
44578;SDS011;37422;51.402;0.016;2022-12-26T18:05:51;9.63;;;2.70;;
44578;SDS011;37422;51.402;0.016;2022-12-26T18:08:27;9.48;;;2.58;;
44578;SDS011;37422;51.402;0.016;2022-12-26T18:11:20;8.52;;;3.20;;
44578;SDS011;37422;51.402;0.016;2022-12-26T18:13:50;10.48;;;2.67;;
44578;SDS011;37422;51.402;0.016;2022-12-26T18:16:19;6.53;;;3.15;;
44578;SDS011;37422;51.402;0.016;2022-12-26T18:18:51;20.17;;;6.15;;
44578;SDS011;37422;51.402;0.016;2022-12-26T18:21:41;12.48;;;3.38;;
44578;SDS011;37422;51.402;0.016;2022-12-26T18:24:10;9.40;;;4.15;;
44578;SDS011;37422;51.402;0.016;2022-12-26T18:26:43;14.55;;;3.28;;
44578;SDS011;37422;51.402;0.016;2022-12-26T18:29:15;11.70;;;3.35;;
44578;SDS011;37422;51.402;0.016;2022-12-26T18:35:16;11.45;;;2.92;;
44578;SDS011;37422;51.402;0.016;2022-12-26T18:41:36;7.67;;;3.57;;
44578;SDS011;37422;51.402;0.016;2022-12-26T18:44:40;13.73;;;3.15;;
44578;SDS011;37422;51.402;0.016;2022-12-26T18:48:09;7.60;;;2.58;;
44578;SDS011;37422;51.402;0.016;2022-12-26T18:51:05;16.35;;;3.25;;
44578;SDS011;37422;51.402;0.016;2022-12-26T18:54:18;11.23;;;3.92;;
44578;SDS011;37422;51.402;0.016;2022-12-26T18:57:50;11.90;;;2.80;;
44578;SDS011;37422;51.402;0.016;2022-12-26T19:04:11;10.35;;;2.55;;
44578;SDS011;37422;51.402;0.016;2022-12-26T19:07:04;9.80;;;2.10;;
44578;SDS011;37422;51.402;0.016;2022-12-26T19:10:19;7.00;;;2.30;;
44578;SDS011;37422;51.402;0.016;2022-12-26T19:13:30;6.05;;;2.50;;
44578;SDS011;37422;51.402;0.016;2022-12-26T19:15:59;10.68;;;2.65;;
44578;SDS011;37422;51.402;0.016;2022-12-26T19:18:28;15.15;;;3.65;;
44578;SDS011;37422;51.402;0.016;2022-12-26T19:20:55;12.30;;;2.95;;
44578;SDS011;37422;51.402;0.016;2022-12-26T19:23:26;10.20;;;2.83;;
44578;SDS011;37422;51.402;0.016;2022-12-26T19:25:57;5.05;;;2.10;;
44578;SDS011;37422;51.402;0.016;2022-12-26T19:28:25;9.00;;;2.47;;
44578;SDS011;37422;51.402;0.016;2022-12-26T19:30:53;10.63;;;2.63;;
44578;SDS011;37422;51.402;0.016;2022-12-26T19:33:21;10.20;;;2.30;;
44578;SDS011;37422;51.402;0.016;2022-12-26T19:35:53;6.65;;;2.45;;
44578;SDS011;37422;51.402;0.016;2022-12-26T19:38:32;10.77;;;3.28;;
44578;SDS011;37422;51.402;0.016;2022-12-26T19:41:06;7.13;;;2.83;;
44578;SDS011;37422;51.402;0.016;2022-12-26T19:47:28;6.45;;;2.35;;
44578;SDS011;37422;51.402;0.016;2022-12-26T19:50:17;7.20;;;2.93;;
44578;SDS011;37422;51.402;0.016;2022-12-26T19:52:46;4.53;;;2.10;;
44578;SDS011;37422;51.402;0.016;2022-12-26T19:55:14;6.80;;;2.10;;
44578;SDS011;37422;51.402;0.016;2022-12-26T19:57:41;10.02;;;2.58;;
44578;SDS011;37422;51.402;0.016;2022-12-26T20:00:09;6.75;;;2.92;;
44578;SDS011;37422;51.402;0.016;2022-12-26T20:02:39;6.18;;;1.95;;
44578;SDS011;37422;51.402;0.016;2022-12-26T20:05:10;7.97;;;1.95;;
44578;SDS011;37422;51.402;0.016;2022-12-26T20:10:09;12.00;;;3.40;;
44578;SDS011;37422;51.402;0.016;2022-12-26T20:12:48;7.80;;;2.55;;
44578;SDS011;37422;51.402;0.016;2022-12-26T20:15:22;5.93;;;2.30;;
44578;SDS011;37422;51.402;0.016;2022-12-26T20:17:50;9.80;;;2.15;;
44578;SDS011;37422;51.402;0.016;2022-12-26T20:20:20;15.18;;;3.05;;
44578;SDS011;37422;51.402;0.016;2022-12-26T20:22:48;6.57;;;2.15;;
44578;SDS011;37422;51.402;0.016;2022-12-26T20:25:19;8.38;;;2.17;;
44578;SDS011;37422;51.402;0.016;2022-12-26T20:27:51;6.50;;;2.58;;
44578;SDS011;37422;51.402;0.016;2022-12-26T20:30:22;10.60;;;2.20;;
44578;SDS011;37422;51.402;0.016;2022-12-26T20:33:02;6.88;;;2.35;;
44578;SDS011;37422;51.402;0.016;2022-12-26T20:35:37;4.45;;;2.08;;
44578;SDS011;37422;51.402;0.016;2022-12-26T20:38:09;11.07;;;2.45;;
44578;SDS011;37422;51.402;0.016;2022-12-26T20:40:45;11.88;;;2.67;;
44578;SDS011;37422;51.402;0.016;2022-12-26T20:43:19;9.85;;;2.20;;
44578;SDS011;37422;51.402;0.016;2022-12-26T20:46:12;5.85;;;2.13;;
44578;SDS011;37422;51.402;0.016;2022-12-26T20:48:47;9.18;;;2.55;;
44578;SDS011;37422;51.402;0.016;2022-12-26T20:51:24;11.95;;;2.95;;
44578;SDS011;37422;51.402;0.016;2022-12-26T20:54:06;10.93;;;2.78;;
44578;SDS011;37422;51.402;0.016;2022-12-26T20:57:07;10.63;;;2.85;;
44578;SDS011;37422;51.402;0.016;2022-12-26T21:04:28;5.75;;;2.05;;
44578;SDS011;37422;51.402;0.016;2022-12-26T21:07:13;17.83;;;2.95;;
44578;SDS011;37422;51.402;0.016;2022-12-26T21:09:53;8.02;;;2.63;;
44578;SDS011;37422;51.402;0.016;2022-12-26T21:13:17;15.75;;;3.45;;
44578;SDS011;37422;51.402;0.016;2022-12-26T21:15:56;10.13;;;3.25;;
44578;SDS011;37422;51.402;0.016;2022-12-26T21:19:04;9.07;;;2.42;;
44578;SDS011;37422;51.402;0.016;2022-12-26T21:21:40;8.35;;;2.47;;
44578;SDS011;37422;51.402;0.016;2022-12-26T21:24:34;18.25;;;4.20;;
44578;SDS011;37422;51.402;0.016;2022-12-26T21:27:45;13.30;;;2.72;;
44578;SDS011;37422;51.402;0.016;2022-12-26T21:31:08;15.60;;;3.22;;
44578;SDS011;37422;51.402;0.016;2022-12-26T21:33:37;12.13;;;3.30;;
44578;SDS011;37422;51.402;0.016;2022-12-26T21:36:11;14.23;;;3.58;;